sensor_id;sensor_type;location;lat;lon;timestamp;temperature;humidity
75705;DHT22;64391;44.686;37.628;2022-10-19T00:01:53;11.84;89.17
75705;DHT22;64391;44.686;37.628;2022-10-19T00:04:25;11.87;89.64
75705;DHT22;64391;44.686;37.628;2022-10-19T00:06:56;11.86;89.96
75705;DHT22;64391;44.686;37.628;2022-10-19T00:09:28;11.99;89.86
75705;DHT22;64391;44.686;37.628;2022-10-19T00:12:00;12.03;89.46
75705;DHT22;64391;44.686;37.628;2022-10-19T00:14:32;12.04;89.33
75705;DHT22;64391;44.686;37.628;2022-10-19T00:17:04;12.06;89.35
75705;DHT22;64391;44.686;37.628;2022-10-19T00:19:36;12.12;89.57
75705;DHT22;64391;44.686;37.628;2022-10-19T00:22:07;12.12;89.57
75705;DHT22;64391;44.686;37.628;2022-10-19T00:24:39;12.13;89.54
75705;DHT22;64391;44.686;37.628;2022-10-19T00:27:11;12.19;89.08
75705;DHT22;64391;44.686;37.628;2022-10-19T00:29:43;12.23;88.93
75705;DHT22;64391;44.686;37.628;2022-10-19T00:32:15;12.32;89.39
75705;DHT22;64391;44.686;37.628;2022-10-19T00:34:47;12.32;89.43
75705;DHT22;64391;44.686;37.628;2022-10-19T00:37:19;12.36;89.62
75705;DHT22;64391;44.686;37.628;2022-10-19T00:39:50;12.35;89.80
75705;DHT22;64391;44.686;37.628;2022-10-19T00:42:22;12.36;89.89
75705;DHT22;64391;44.686;37.628;2022-10-19T00:44:57;12.36;89.93
75705;DHT22;64391;44.686;37.628;2022-10-19T00:47:30;12.40;89.68
75705;DHT22;64391;44.686;37.628;2022-10-19T00:50:03;12.55;88.66
75705;DHT22;64391;44.686;37.628;2022-10-19T00:52:35;12.45;89.49
75705;DHT22;64391;44.686;37.628;2022-10-19T00:55:08;12.34;90.02
75705;DHT22;64391;44.686;37.628;2022-10-19T00:57:41;12.25;90.57
75705;DHT22;64391;44.686;37.628;2022-10-19T01:00:13;12.22;90.48
75705;DHT22;64391;44.686;37.628;2022-10-19T01:02:45;12.25;90.53
75705;DHT22;64391;44.686;37.628;2022-10-19T01:05:17;12.15;91.05
75705;DHT22;64391;44.686;37.628;2022-10-19T01:07:49;12.15;91.45
75705;DHT22;64391;44.686;37.628;2022-10-19T01:10:30;12.12;91.87
75705;DHT22;64391;44.686;37.628;2022-10-19T01:25:29;11.93;92.01
75705;DHT22;64391;44.686;37.628;2022-10-19T01:28:31;11.91;92.59
75705;DHT22;64391;44.686;37.628;2022-10-19T01:34:31;11.84;91.79
75705;DHT22;64391;44.686;37.628;2022-10-19T01:39:59;11.84;92.09
75705;DHT22;64391;44.686;37.628;2022-10-19T01:42:36;11.77;92.63
75705;DHT22;64391;44.686;37.628;2022-10-19T01:45:19;11.76;92.73
75705;DHT22;64391;44.686;37.628;2022-10-19T01:47:56;11.74;92.56
75705;DHT22;64391;44.686;37.628;2022-10-19T01:53:02;11.78;93.02
75705;DHT22;64391;44.686;37.628;2022-10-19T01:55:39;11.76;92.75
75705;DHT22;64391;44.686;37.628;2022-10-19T01:58:15;11.76;92.79
75705;DHT22;64391;44.686;37.628;2022-10-19T02:00:50;11.82;93.04
75705;DHT22;64391;44.686;37.628;2022-10-19T02:03:24;11.87;92.75
75705;DHT22;64391;44.686;37.628;2022-10-19T02:05:57;11.84;92.66
75705;DHT22;64391;44.686;37.628;2022-10-19T02:08:35;11.78;92.68
75705;DHT22;64391;44.686;37.628;2022-10-19T02:11:08;11.77;93.14
75705;DHT22;64391;44.686;37.628;2022-10-19T02:13:41;11.75;93.14
75705;DHT22;64391;44.686;37.628;2022-10-19T02:16:19;11.75;93.32
75705;DHT22;64391;44.686;37.628;2022-10-19T02:18:53;11.79;93.29
75705;DHT22;64391;44.686;37.628;2022-10-19T02:21:26;11.82;93.25
75705;DHT22;64391;44.686;37.628;2022-10-19T02:23:58;11.87;93.25
75705;DHT22;64391;44.686;37.628;2022-10-19T02:26:30;11.94;93.12
75705;DHT22;64391;44.686;37.628;2022-10-19T02:29:02;11.98;93.46
75705;DHT22;64391;44.686;37.628;2022-10-19T02:31:34;12.04;93.40
75705;DHT22;64391;44.686;37.628;2022-10-19T02:34:06;12.08;93.64
75705;DHT22;64391;44.686;37.628;2022-10-19T02:36:39;12.12;94.11
75705;DHT22;64391;44.686;37.628;2022-10-19T02:39:11;12.18;93.89
75705;DHT22;64391;44.686;37.628;2022-10-19T02:44:52;12.34;93.71
75705;DHT22;64391;44.686;37.628;2022-10-19T02:47:41;12.45;93.48
75705;DHT22;64391;44.686;37.628;2022-10-19T02:50:13;12.50;93.27
75705;DHT22;64391;44.686;37.628;2022-10-19T02:52:45;12.60;93.16
75705;DHT22;64391;44.686;37.628;2022-10-19T02:55:17;12.69;92.86
75705;DHT22;64391;44.686;37.628;2022-10-19T02:57:49;12.79;92.66
75705;DHT22;64391;44.686;37.628;2022-10-19T03:00:21;12.79;92.66
75705;DHT22;64391;44.686;37.628;2022-10-19T03:02:53;12.77;92.88
75705;DHT22;64391;44.686;37.628;2022-10-19T03:05:24;12.75;93.02
75705;DHT22;64391;44.686;37.628;2022-10-19T03:07:57;12.84;92.53
75705;DHT22;64391;44.686;37.628;2022-10-19T03:10:28;12.81;92.49
75705;DHT22;64391;44.686;37.628;2022-10-19T03:13:00;12.75;92.72
75705;DHT22;64391;44.686;37.628;2022-10-19T03:15:32;12.72;93.01
75705;DHT22;64391;44.686;37.628;2022-10-19T03:18:04;12.71;93.20
75705;DHT22;64391;44.686;37.628;2022-10-19T03:20:35;12.66;93.63
75705;DHT22;64391;44.686;37.628;2022-10-19T03:23:07;12.69;93.66
75705;DHT22;64391;44.686;37.628;2022-10-19T03:25:39;12.76;92.90
75705;DHT22;64391;44.686;37.628;2022-10-19T03:28:11;12.72;93.57
75705;DHT22;64391;44.686;37.628;2022-10-19T03:30:43;12.72;93.44
75705;DHT22;64391;44.686;37.628;2022-10-19T03:33:15;12.64;93.18
75705;DHT22;64391;44.686;37.628;2022-10-19T03:35:46;12.62;93.20
75705;DHT22;64391;44.686;37.628;2022-10-19T03:38:18;12.59;93.22
75705;DHT22;64391;44.686;37.628;2022-10-19T03:40:50;12.51;93.63
75705;DHT22;64391;44.686;37.628;2022-10-19T03:43:22;12.56;93.55
75705;DHT22;64391;44.686;37.628;2022-10-19T03:45:53;12.57;93.37
75705;DHT22;64391;44.686;37.628;2022-10-19T03:48:25;12.52;93.75
75705;DHT22;64391;44.686;37.628;2022-10-19T03:50:59;12.48;93.68
75705;DHT22;64391;44.686;37.628;2022-10-19T03:53:32;12.50;93.87
75705;DHT22;64391;44.686;37.628;2022-10-19T03:56:15;12.56;93.79
75705;DHT22;64391;44.686;37.628;2022-10-19T03:58:49;12.55;93.44
75705;DHT22;64391;44.686;37.628;2022-10-19T04:01:26;12.48;93.58
75705;DHT22;64391;44.686;37.628;2022-10-19T04:04:02;12.41;93.65
75705;DHT22;64391;44.686;37.628;2022-10-19T04:06:36;12.41;94.14
75705;DHT22;64391;44.686;37.628;2022-10-19T04:09:12;12.43;94.36
75705;DHT22;64391;44.686;37.628;2022-10-19T04:11:44;12.45;94.36
75705;DHT22;64391;44.686;37.628;2022-10-19T04:14:17;12.44;94.50
75705;DHT22;64391;44.686;37.628;2022-10-19T04:16:49;12.46;94.91
75705;DHT22;64391;44.686;37.628;2022-10-19T04:19:21;12.49;94.97
75705;DHT22;64391;44.686;37.628;2022-10-19T04:21:53;12.52;94.69
75705;DHT22;64391;44.686;37.628;2022-10-19T04:24:26;12.58;94.00
75705;DHT22;64391;44.686;37.628;2022-10-19T04:26:58;12.60;94.01
75705;DHT22;64391;44.686;37.628;2022-10-19T04:29:29;12.67;94.33
75705;DHT22;64391;44.686;37.628;2022-10-19T04:32:01;12.80;94.07
75705;DHT22;64391;44.686;37.628;2022-10-19T04:34:33;12.82;94.13
75705;DHT22;64391;44.686;37.628;2022-10-19T04:37:05;12.87;94.15
75705;DHT22;64391;44.686;37.628;2022-10-19T04:39:36;13.02;93.57
75705;DHT22;64391;44.686;37.628;2022-10-19T04:42:11;13.08;93.75
75705;DHT22;64391;44.686;37.628;2022-10-19T04:44:43;13.15;94.02
75705;DHT22;64391;44.686;37.628;2022-10-19T04:47:15;13.17;94.07
75705;DHT22;64391;44.686;37.628;2022-10-19T04:49:46;13.25;94.56
75705;DHT22;64391;44.686;37.628;2022-10-19T04:52:18;13.32;94.42
75705;DHT22;64391;44.686;37.628;2022-10-19T04:54:50;13.43;94.17
75705;DHT22;64391;44.686;37.628;2022-10-19T04:57:22;13.48;94.01
75705;DHT22;64391;44.686;37.628;2022-10-19T04:59:54;13.62;93.80
75705;DHT22;64391;44.686;37.628;2022-10-19T05:02:25;13.70;94.29
75705;DHT22;64391;44.686;37.628;2022-10-19T05:04:57;13.79;94.55
75705;DHT22;64391;44.686;37.628;2022-10-19T05:07:29;13.93;94.20
75705;DHT22;64391;44.686;37.628;2022-10-19T05:10:01;14.07;93.83
75705;DHT22;64391;44.686;37.628;2022-10-19T05:12:36;14.22;93.53
75705;DHT22;64391;44.686;37.628;2022-10-19T05:15:08;14.35;93.06
75705;DHT22;64391;44.686;37.628;2022-10-19T05:17:40;14.48;92.72
75705;DHT22;64391;44.686;37.628;2022-10-19T05:20:12;14.58;92.53
75705;DHT22;64391;44.686;37.628;2022-10-19T05:22:44;14.66;92.63
75705;DHT22;64391;44.686;37.628;2022-10-19T05:25:16;14.78;92.82
75705;DHT22;64391;44.686;37.628;2022-10-19T05:27:52;14.91;92.92
75705;DHT22;64391;44.686;37.628;2022-10-19T05:30:24;15.07;92.67
75705;DHT22;64391;44.686;37.628;2022-10-19T05:32:55;15.22;92.43
75705;DHT22;64391;44.686;37.628;2022-10-19T05:35:27;15.36;92.56
75705;DHT22;64391;44.686;37.628;2022-10-19T05:37:59;15.48;92.31
75705;DHT22;64391;44.686;37.628;2022-10-19T05:40:31;15.61;92.31
75705;DHT22;64391;44.686;37.628;2022-10-19T05:43:03;15.71;92.08
75705;DHT22;64391;44.686;37.628;2022-10-19T05:45:34;15.84;91.59
75705;DHT22;64391;44.686;37.628;2022-10-19T05:48:06;15.95;91.58
75705;DHT22;64391;44.686;37.628;2022-10-19T05:50:38;16.07;91.54
75705;DHT22;64391;44.686;37.628;2022-10-19T05:53:10;16.26;91.31
75705;DHT22;64391;44.686;37.628;2022-10-19T05:55:42;16.47;91.31
75705;DHT22;64391;44.686;37.628;2022-10-19T05:58:14;16.66;90.18
75705;DHT22;64391;44.686;37.628;2022-10-19T06:00:57;16.87;89.54
75705;DHT22;64391;44.686;37.628;2022-10-19T06:03:29;17.01;90.42
75705;DHT22;64391;44.686;37.628;2022-10-19T06:06:03;17.15;89.92
75705;DHT22;64391;44.686;37.628;2022-10-19T06:08:36;17.29;89.76
75705;DHT22;64391;44.686;37.628;2022-10-19T06:11:11;17.47;89.65
75705;DHT22;64391;44.686;37.628;2022-10-19T06:13:45;17.62;89.09
75705;DHT22;64391;44.686;37.628;2022-10-19T06:16:18;17.78;88.77
75705;DHT22;64391;44.686;37.628;2022-10-19T06:18:51;17.93;88.47
75705;DHT22;64391;44.686;37.628;2022-10-19T06:21:26;18.09;88.49
75705;DHT22;64391;44.686;37.628;2022-10-19T06:24:00;18.27;88.02
75705;DHT22;64391;44.686;37.628;2022-10-19T06:26:35;18.44;87.27
75705;DHT22;64391;44.686;37.628;2022-10-19T06:29:08;18.57;86.72
75705;DHT22;64391;44.686;37.628;2022-10-19T06:31:39;18.71;86.30
75705;DHT22;64391;44.686;37.628;2022-10-19T06:34:11;18.86;85.30
75705;DHT22;64391;44.686;37.628;2022-10-19T06:36:43;19.01;84.89
75705;DHT22;64391;44.686;37.628;2022-10-19T06:39:15;19.16;84.69
75705;DHT22;64391;44.686;37.628;2022-10-19T06:41:47;19.27;83.61
75705;DHT22;64391;44.686;37.628;2022-10-19T06:44:25;19.37;83.57
75705;DHT22;64391;44.686;37.628;2022-10-19T06:46:57;19.55;83.07
75705;DHT22;64391;44.686;37.628;2022-10-19T06:49:29;19.70;81.78
75705;DHT22;64391;44.686;37.628;2022-10-19T06:52:02;19.88;81.86
75705;DHT22;64391;44.686;37.628;2022-10-19T06:54:36;20.03;81.12
75705;DHT22;64391;44.686;37.628;2022-10-19T06:57:08;20.15;79.83
75705;DHT22;64391;44.686;37.628;2022-10-19T06:59:39;20.28;80.10
75705;DHT22;64391;44.686;37.628;2022-10-19T07:02:11;20.43;78.88
75705;DHT22;64391;44.686;37.628;2022-10-19T07:04:43;20.51;79.35
75705;DHT22;64391;44.686;37.628;2022-10-19T07:07:15;20.62;78.62
75705;DHT22;64391;44.686;37.628;2022-10-19T07:09:47;20.71;78.05
75705;DHT22;64391;44.686;37.628;2022-10-19T07:12:19;20.72;77.69
75705;DHT22;64391;44.686;37.628;2022-10-19T07:14:51;20.79;77.85
75705;DHT22;64391;44.686;37.628;2022-10-19T07:17:24;20.83;77.76
75705;DHT22;64391;44.686;37.628;2022-10-19T07:19:56;20.91;78.29
75705;DHT22;64391;44.686;37.628;2022-10-19T07:22:31;21.02;77.14
75705;DHT22;64391;44.686;37.628;2022-10-19T07:25:03;21.00;77.53
75705;DHT22;64391;44.686;37.628;2022-10-19T07:27:35;21.04;76.44
75705;DHT22;64391;44.686;37.628;2022-10-19T07:30:09;21.11;76.24
75705;DHT22;64391;44.686;37.628;2022-10-19T07:32:41;21.10;76.02
75705;DHT22;64391;44.686;37.628;2022-10-19T07:35:13;21.07;76.60
75705;DHT22;64391;44.686;37.628;2022-10-19T07:37:45;21.17;75.63
75705;DHT22;64391;44.686;37.628;2022-10-19T07:40:17;21.17;75.36
75705;DHT22;64391;44.686;37.628;2022-10-19T07:42:48;21.17;74.97
75705;DHT22;64391;44.686;37.628;2022-10-19T07:45:20;21.22;75.47
75705;DHT22;64391;44.686;37.628;2022-10-19T07:47:52;21.35;74.71
75705;DHT22;64391;44.686;37.628;2022-10-19T07:50:24;21.42;74.44
75705;DHT22;64391;44.686;37.628;2022-10-19T07:52:57;21.53;74.38
75705;DHT22;64391;44.686;37.628;2022-10-19T07:55:29;21.57;74.58
75705;DHT22;64391;44.686;37.628;2022-10-19T07:58:01;21.66;74.18
75705;DHT22;64391;44.686;37.628;2022-10-19T08:00:33;21.70;74.00
75705;DHT22;64391;44.686;37.628;2022-10-19T08:03:04;21.77;73.28
75705;DHT22;64391;44.686;37.628;2022-10-19T08:05:36;21.79;72.00
75705;DHT22;64391;44.686;37.628;2022-10-19T08:08:08;21.90;71.84
75705;DHT22;64391;44.686;37.628;2022-10-19T08:10:40;22.06;71.10
75705;DHT22;64391;44.686;37.628;2022-10-19T08:13:12;22.16;71.18
75705;DHT22;64391;44.686;37.628;2022-10-19T08:15:43;22.25;70.72
75705;DHT22;64391;44.686;37.628;2022-10-19T08:18:15;22.29;70.07
75705;DHT22;64391;44.686;37.628;2022-10-19T08:20:48;22.42;70.36
75705;DHT22;64391;44.686;37.628;2022-10-19T08:23:20;22.33;69.58
75705;DHT22;64391;44.686;37.628;2022-10-19T08:25:57;22.57;70.44
75705;DHT22;64391;44.686;37.628;2022-10-19T08:28:30;22.75;69.55
75705;DHT22;64391;44.686;37.628;2022-10-19T08:31:12;22.88;69.65
75705;DHT22;64391;44.686;37.628;2022-10-19T08:33:45;23.09;68.06
75705;DHT22;64391;44.686;37.628;2022-10-19T08:36:19;23.16;68.10
75705;DHT22;64391;44.686;37.628;2022-10-19T08:38:51;23.21;68.17
75705;DHT22;64391;44.686;37.628;2022-10-19T08:49:58;23.26;67.86
75705;DHT22;64391;44.686;37.628;2022-10-19T08:52:33;23.26;67.77
75705;DHT22;64391;44.686;37.628;2022-10-19T08:55:22;23.37;68.11
75705;DHT22;64391;44.686;37.628;2022-10-19T08:58:19;23.30;67.92
75705;DHT22;64391;44.686;37.628;2022-10-19T09:01:01;23.28;68.97
75705;DHT22;64391;44.686;37.628;2022-10-19T09:03:49;23.34;68.91
75705;DHT22;64391;44.686;37.628;2022-10-19T09:06:47;23.28;68.64
75705;DHT22;64391;44.686;37.628;2022-10-19T09:09:22;23.42;68.40
75705;DHT22;64391;44.686;37.628;2022-10-19T09:11:57;23.66;67.61
75705;DHT22;64391;44.686;37.628;2022-10-19T09:14:34;23.84;66.26
75705;DHT22;64391;44.686;37.628;2022-10-19T09:17:13;23.75;66.03
75705;DHT22;64391;44.686;37.628;2022-10-19T09:19:47;23.68;66.24
75705;DHT22;64391;44.686;37.628;2022-10-19T09:22:22;23.76;66.63
75705;DHT22;64391;44.686;37.628;2022-10-19T09:25:11;23.99;66.80
75705;DHT22;64391;44.686;37.628;2022-10-19T09:27:47;23.73;66.43
75705;DHT22;64391;44.686;37.628;2022-10-19T09:30:21;23.88;67.57
75705;DHT22;64391;44.686;37.628;2022-10-19T09:33:01;23.97;65.89
75705;DHT22;64391;44.686;37.628;2022-10-19T09:35:39;24.01;66.50
75705;DHT22;64391;44.686;37.628;2022-10-19T09:38:14;24.19;65.53
75705;DHT22;64391;44.686;37.628;2022-10-19T09:40:47;24.24;64.59
75705;DHT22;64391;44.686;37.628;2022-10-19T09:43:19;24.11;65.87
75705;DHT22;64391;44.686;37.628;2022-10-19T09:46:16;24.33;65.22
75705;DHT22;64391;44.686;37.628;2022-10-19T09:48:51;24.43;64.45
75705;DHT22;64391;44.686;37.628;2022-10-19T09:51:23;24.49;65.24
75705;DHT22;64391;44.686;37.628;2022-10-19T09:53:56;24.71;64.09
75705;DHT22;64391;44.686;37.628;2022-10-19T09:56:27;24.60;64.30
75705;DHT22;64391;44.686;37.628;2022-10-19T09:58:59;24.39;65.19
75705;DHT22;64391;44.686;37.628;2022-10-19T10:01:37;24.38;65.44
75705;DHT22;64391;44.686;37.628;2022-10-19T10:04:14;24.20;65.17
75705;DHT22;64391;44.686;37.628;2022-10-19T10:06:47;24.33;64.68
75705;DHT22;64391;44.686;37.628;2022-10-19T10:09:25;24.32;64.67
75705;DHT22;64391;44.686;37.628;2022-10-19T10:11:58;24.24;65.08
75705;DHT22;64391;44.686;37.628;2022-10-19T10:14:37;24.32;65.47
75705;DHT22;64391;44.686;37.628;2022-10-19T10:17:15;24.55;64.69
75705;DHT22;64391;44.686;37.628;2022-10-19T10:22:32;24.33;64.10
75705;DHT22;64391;44.686;37.628;2022-10-19T10:25:25;24.57;63.46
75705;DHT22;64391;44.686;37.628;2022-10-19T10:28:16;24.79;63.39
75705;DHT22;64391;44.686;37.628;2022-10-19T10:30:53;24.91;61.82
75705;DHT22;64391;44.686;37.628;2022-10-19T10:33:27;25.05;62.03
75705;DHT22;64391;44.686;37.628;2022-10-19T10:36:06;25.06;61.52
75705;DHT22;64391;44.686;37.628;2022-10-19T10:38:48;25.18;60.64
75705;DHT22;64391;44.686;37.628;2022-10-19T10:41:22;25.34;58.43
75705;DHT22;64391;44.686;37.628;2022-10-19T10:44:04;25.45;58.70
75705;DHT22;64391;44.686;37.628;2022-10-19T10:47:04;25.13;58.77
75705;DHT22;64391;44.686;37.628;2022-10-19T10:49:37;25.13;60.89
75705;DHT22;64391;44.686;37.628;2022-10-19T10:52:14;25.19;60.36
75705;DHT22;64391;44.686;37.628;2022-10-19T10:55:00;25.49;59.62
75705;DHT22;64391;44.686;37.628;2022-10-19T10:57:40;25.51;58.48
75705;DHT22;64391;44.686;37.628;2022-10-19T11:00:15;25.48;59.32
75705;DHT22;64391;44.686;37.628;2022-10-19T11:02:51;25.59;59.30
75705;DHT22;64391;44.686;37.628;2022-10-19T11:05:27;25.38;58.37
75705;DHT22;64391;44.686;37.628;2022-10-19T11:08:16;25.31;60.66
75705;DHT22;64391;44.686;37.628;2022-10-19T11:10:58;25.46;60.56
75705;DHT22;64391;44.686;37.628;2022-10-19T11:16:49;25.57;60.08
75705;DHT22;64391;44.686;37.628;2022-10-19T11:30:33;25.31;59.71
75705;DHT22;64391;44.686;37.628;2022-10-19T11:36:01;25.00;60.79
75705;DHT22;64391;44.686;37.628;2022-10-19T11:38:50;25.23;59.03
75705;DHT22;64391;44.686;37.628;2022-10-19T11:47:29;25.53;58.06
75705;DHT22;64391;44.686;37.628;2022-10-19T11:50:30;25.54;59.22
75705;DHT22;64391;44.686;37.628;2022-10-19T11:53:38;25.65;57.25
75705;DHT22;64391;44.686;37.628;2022-10-19T11:56:30;25.57;57.42
75705;DHT22;64391;44.686;37.628;2022-10-19T11:59:08;25.29;59.24
75705;DHT22;64391;44.686;37.628;2022-10-19T12:13:53;25.43;58.90
75705;DHT22;64391;44.686;37.628;2022-10-19T12:16:36;25.43;59.02
75705;DHT22;64391;44.686;37.628;2022-10-19T12:19:17;25.24;59.18
75705;DHT22;64391;44.686;37.628;2022-10-19T12:21:52;25.15;59.19
75705;DHT22;64391;44.686;37.628;2022-10-19T12:24:27;24.84;61.15
75705;DHT22;64391;44.686;37.628;2022-10-19T12:27:01;24.93;59.68
75705;DHT22;64391;44.686;37.628;2022-10-19T12:29:36;24.87;59.80
75705;DHT22;64391;44.686;37.628;2022-10-19T12:32:14;24.66;60.80
75705;DHT22;64391;44.686;37.628;2022-10-19T12:35:04;24.45;61.09
75705;DHT22;64391;44.686;37.628;2022-10-19T12:37:50;24.06;62.63
75705;DHT22;64391;44.686;37.628;2022-10-19T12:40:43;23.91;62.48
75705;DHT22;64391;44.686;37.628;2022-10-19T12:46:16;23.31;65.58
75705;DHT22;64391;44.686;37.628;2022-10-19T12:52:00;23.16;64.99
75705;DHT22;64391;44.686;37.628;2022-10-19T12:54:34;23.02;65.16
75705;DHT22;64391;44.686;37.628;2022-10-19T12:57:25;22.82;66.41
75705;DHT22;64391;44.686;37.628;2022-10-19T13:00:00;22.77;63.89
75705;DHT22;64391;44.686;37.628;2022-10-19T13:02:35;22.64;63.97
75705;DHT22;64391;44.686;37.628;2022-10-19T13:05:19;22.58;64.87
75705;DHT22;64391;44.686;37.628;2022-10-19T13:07:51;22.47;65.20
75705;DHT22;64391;44.686;37.628;2022-10-19T13:10:25;22.33;64.14
75705;DHT22;64391;44.686;37.628;2022-10-19T13:12:58;22.26;65.38
75705;DHT22;64391;44.686;37.628;2022-10-19T13:18:14;22.02;68.24
75705;DHT22;64391;44.686;37.628;2022-10-19T13:20:51;21.87;69.23
75705;DHT22;64391;44.686;37.628;2022-10-19T13:26:31;21.62;70.65
75705;DHT22;64391;44.686;37.628;2022-10-19T13:29:24;21.40;71.42
75705;DHT22;64391;44.686;37.628;2022-10-19T13:32:32;21.35;71.45
75705;DHT22;64391;44.686;37.628;2022-10-19T13:35:34;21.21;72.00
75705;DHT22;64391;44.686;37.628;2022-10-19T13:43:22;21.07;71.58
75705;DHT22;64391;44.686;37.628;2022-10-19T13:46:11;20.90;72.96
75705;DHT22;64391;44.686;37.628;2022-10-19T14:10:03;19.96;78.15
75705;DHT22;64391;44.686;37.628;2022-10-19T14:12:40;19.90;78.53
75705;DHT22;64391;44.686;37.628;2022-10-19T14:15:28;19.67;79.66
75705;DHT22;64391;44.686;37.628;2022-10-19T14:18:00;19.63;79.37
75705;DHT22;64391;44.686;37.628;2022-10-19T14:20:37;19.61;79.64
75705;DHT22;64391;44.686;37.628;2022-10-19T14:23:21;19.59;79.76
75705;DHT22;64391;44.686;37.628;2022-10-19T14:26:02;19.39;80.65
75705;DHT22;64391;44.686;37.628;2022-10-19T14:28:35;19.39;78.85
75705;DHT22;64391;44.686;37.628;2022-10-19T14:31:17;19.38;80.12
75705;DHT22;64391;44.686;37.628;2022-10-19T14:33:52;19.43;79.84
75705;DHT22;64391;44.686;37.628;2022-10-19T14:36:33;19.30;80.34
75705;DHT22;64391;44.686;37.628;2022-10-19T14:39:06;19.05;81.35
75705;DHT22;64391;44.686;37.628;2022-10-19T14:41:38;18.83;82.60
75705;DHT22;64391;44.686;37.628;2022-10-19T14:44:33;18.83;82.29
75705;DHT22;64391;44.686;37.628;2022-10-19T14:47:20;18.97;80.95
75705;DHT22;64391;44.686;37.628;2022-10-19T14:49:52;18.88;80.82
75705;DHT22;64391;44.686;37.628;2022-10-19T14:52:36;18.95;80.86
75705;DHT22;64391;44.686;37.628;2022-10-19T14:55:15;18.94;81.02
75705;DHT22;64391;44.686;37.628;2022-10-19T14:57:50;18.83;81.39
75705;DHT22;64391;44.686;37.628;2022-10-19T15:00:23;18.73;81.43
75705;DHT22;64391;44.686;37.628;2022-10-19T15:03:03;18.59;81.72
75705;DHT22;64391;44.686;37.628;2022-10-19T15:05:40;18.49;82.51
75705;DHT22;64391;44.686;37.628;2022-10-19T15:08:44;18.37;82.81
75705;DHT22;64391;44.686;37.628;2022-10-19T15:11:25;18.34;81.69
75705;DHT22;64391;44.686;37.628;2022-10-19T15:14:01;18.21;82.97
75705;DHT22;64391;44.686;37.628;2022-10-19T15:16:43;18.02;83.64
75705;DHT22;64391;44.686;37.628;2022-10-19T15:27:42;17.38;84.08
75705;DHT22;64391;44.686;37.628;2022-10-19T15:32:51;17.24;83.89
75705;DHT22;64391;44.686;37.628;2022-10-19T15:35:29;17.03;84.42
75705;DHT22;64391;44.686;37.628;2022-10-19T15:38:23;16.78;85.26
75705;DHT22;64391;44.686;37.628;2022-10-19T15:40:58;16.65;85.43
75705;DHT22;64391;44.686;37.628;2022-10-19T15:46:31;16.63;84.87
75705;DHT22;64391;44.686;37.628;2022-10-19T15:51:49;16.48;85.18
75705;DHT22;64391;44.686;37.628;2022-10-19T15:54:21;16.44;85.84
75705;DHT22;64391;44.686;37.628;2022-10-19T15:56:54;16.32;85.68
75705;DHT22;64391;44.686;37.628;2022-10-19T15:59:27;16.27;84.43
75705;DHT22;64391;44.686;37.628;2022-10-19T16:01:58;16.24;84.70
75705;DHT22;64391;44.686;37.628;2022-10-19T16:04:30;16.02;86.23
75705;DHT22;64391;44.686;37.628;2022-10-19T16:07:02;15.99;86.09
75705;DHT22;64391;44.686;37.628;2022-10-19T16:09:34;15.84;86.93
75705;DHT22;64391;44.686;37.628;2022-10-19T16:12:09;15.70;86.55
75705;DHT22;64391;44.686;37.628;2022-10-19T16:14:41;15.67;86.61
75705;DHT22;64391;44.686;37.628;2022-10-19T16:17:14;15.62;86.86
75705;DHT22;64391;44.686;37.628;2022-10-19T16:19:46;15.66;86.12
75705;DHT22;64391;44.686;37.628;2022-10-19T16:22:18;15.63;86.20
75705;DHT22;64391;44.686;37.628;2022-10-19T16:24:50;15.55;86.63
75705;DHT22;64391;44.686;37.628;2022-10-19T16:27:21;15.53;86.55
75705;DHT22;64391;44.686;37.628;2022-10-19T16:29:53;15.52;86.34
75705;DHT22;64391;44.686;37.628;2022-10-19T16:32:25;15.52;87.07
75705;DHT22;64391;44.686;37.628;2022-10-19T16:34:57;15.49;87.32
75705;DHT22;64391;44.686;37.628;2022-10-19T16:37:29;15.43;87.89
75705;DHT22;64391;44.686;37.628;2022-10-19T16:40:01;15.42;87.86
75705;DHT22;64391;44.686;37.628;2022-10-19T16:42:32;15.40;87.25
75705;DHT22;64391;44.686;37.628;2022-10-19T16:45:05;15.27;87.05
75705;DHT22;64391;44.686;37.628;2022-10-19T16:47:37;15.23;86.85
75705;DHT22;64391;44.686;37.628;2022-10-19T16:50:10;15.16;86.83
75705;DHT22;64391;44.686;37.628;2022-10-19T16:52:41;15.04;86.91
75705;DHT22;64391;44.686;37.628;2022-10-19T16:55:13;15.00;87.84
75705;DHT22;64391;44.686;37.628;2022-10-19T16:57:45;14.85;88.02
75705;DHT22;64391;44.686;37.628;2022-10-19T17:00:19;14.88;87.16
75705;DHT22;64391;44.686;37.628;2022-10-19T17:02:51;14.78;88.31
75705;DHT22;64391;44.686;37.628;2022-10-19T17:05:22;14.74;88.18
75705;DHT22;64391;44.686;37.628;2022-10-19T17:07:54;14.72;88.65
75705;DHT22;64391;44.686;37.628;2022-10-19T17:10:26;14.77;87.83
75705;DHT22;64391;44.686;37.628;2022-10-19T17:12:58;14.79;87.07
75705;DHT22;64391;44.686;37.628;2022-10-19T17:15:30;14.81;87.02
75705;DHT22;64391;44.686;37.628;2022-10-19T17:18:05;14.79;86.92
75705;DHT22;64391;44.686;37.628;2022-10-19T17:20:37;14.67;87.27
75705;DHT22;64391;44.686;37.628;2022-10-19T17:23:09;14.55;87.73
75705;DHT22;64391;44.686;37.628;2022-10-19T17:25:47;14.54;87.72
75705;DHT22;64391;44.686;37.628;2022-10-19T17:28:19;14.60;86.95
75705;DHT22;64391;44.686;37.628;2022-10-19T17:30:51;14.68;86.41
75705;DHT22;64391;44.686;37.628;2022-10-19T17:33:25;14.66;86.82
75705;DHT22;64391;44.686;37.628;2022-10-19T17:36:10;14.53;87.44
75705;DHT22;64391;44.686;37.628;2022-10-19T17:38:42;14.54;87.63
75705;DHT22;64391;44.686;37.628;2022-10-19T17:41:16;14.45;87.62
75705;DHT22;64391;44.686;37.628;2022-10-19T17:43:50;14.32;87.87
75705;DHT22;64391;44.686;37.628;2022-10-19T17:46:25;14.28;87.68
75705;DHT22;64391;44.686;37.628;2022-10-19T17:48:57;14.22;87.05
75705;DHT22;64391;44.686;37.628;2022-10-19T17:51:31;14.10;87.70
75705;DHT22;64391;44.686;37.628;2022-10-19T17:54:05;13.96;88.06
75705;DHT22;64391;44.686;37.628;2022-10-19T17:56:38;13.96;88.02
75705;DHT22;64391;44.686;37.628;2022-10-19T17:59:11;13.88;88.23
75705;DHT22;64391;44.686;37.628;2022-10-19T18:01:43;13.78;88.87
75705;DHT22;64391;44.686;37.628;2022-10-19T18:04:15;13.69;88.77
75705;DHT22;64391;44.686;37.628;2022-10-19T18:06:47;13.76;88.68
75705;DHT22;64391;44.686;37.628;2022-10-19T18:09:20;13.75;88.38
75705;DHT22;64391;44.686;37.628;2022-10-19T18:11:52;13.66;88.03